sensor_id;sensor_type;location;lat;lon;timestamp;pressure;altitude;pressure_sealevel;temperature;humidity
45793;BME280;31495;42.740;22.908;2022-09-21T00:00:42;93259.34;;;5.62;72.73
45793;BME280;31495;42.740;22.908;2022-09-21T00:01:41;93286.88;;;5.83;72.58
45793;BME280;31495;42.740;22.908;2022-09-21T00:02:40;93263.44;;;5.71;72.27
45793;BME280;31495;42.740;22.908;2022-09-21T00:03:41;93285.56;;;5.87;71.92
45793;BME280;31495;42.740;22.908;2022-09-21T00:04:41;93284.50;;;5.82;72.26
45793;BME280;31495;42.740;22.908;2022-09-21T00:05:41;93286.44;;;5.80;72.24
45793;BME280;31495;42.740;22.908;2022-09-21T00:06:41;93285.31;;;5.82;72.35
45793;BME280;31495;42.740;22.908;2022-09-21T00:07:40;93259.16;;;5.64;72.41
45793;BME280;31495;42.740;22.908;2022-09-21T00:08:40;93276.09;;;5.73;72.47
45793;BME280;31495;42.740;22.908;2022-09-21T00:09:40;93293.19;;;5.81;72.44
45793;BME280;31495;42.740;22.908;2022-09-21T00:10:39;93294.75;;;5.82;72.34
45793;BME280;31495;42.740;22.908;2022-09-21T00:11:39;93285.31;;;5.82;71.99
45793;BME280;31495;42.740;22.908;2022-09-21T00:12:38;93245.44;;;5.57;72.07
45793;BME280;31495;42.740;22.908;2022-09-21T00:13:38;93293.97;;;5.81;72.09
45793;BME280;31495;42.740;22.908;2022-09-21T00:14:38;93270.16;;;5.58;72.44
45793;BME280;31495;42.740;22.908;2022-09-21T00:15:38;93287.31;;;5.57;72.39
45793;BME280;31495;42.740;22.908;2022-09-21T00:16:39;93258.28;;;5.42;72.68
45793;BME280;31495;42.740;22.908;2022-09-21T00:17:39;93258.78;;;5.37;72.39
45793;BME280;31495;42.740;22.908;2022-09-21T00:18:38;93300.47;;;5.54;72.68
45793;BME280;31495;42.740;22.908;2022-09-21T00:19:38;93278.59;;;5.28;72.85
45793;BME280;31495;42.740;22.908;2022-09-21T00:20:40;93274.78;;;5.24;73.15
45793;BME280;31495;42.740;22.908;2022-09-21T00:21:41;93252.66;;;5.08;72.87
45793;BME280;31495;42.740;22.908;2022-09-21T00:22:40;93258.50;;;5.17;72.93
45793;BME280;31495;42.740;22.908;2022-09-21T00:23:40;93293.75;;;5.38;72.90
45793;BME280;31495;42.740;22.908;2022-09-21T00:24:40;93264.13;;;5.12;72.73
45793;BME280;31495;42.740;22.908;2022-09-21T00:25:40;93277.84;;;5.20;72.62
45793;BME280;31495;42.740;22.908;2022-09-21T00:26:39;93292.13;;;5.22;72.67
45793;BME280;31495;42.740;22.908;2022-09-21T00:27:39;93254.63;;;4.98;73.13
45793;BME280;31495;42.740;22.908;2022-09-21T00:28:38;93300.69;;;5.29;72.99
45793;BME280;31495;42.740;22.908;2022-09-21T00:29:38;93262.44;;;5.05;73.02
45793;BME280;31495;42.740;22.908;2022-09-21T00:30:38;93254.91;;;5.03;73.25
45793;BME280;31495;42.740;22.908;2022-09-21T00:31:37;93282.03;;;5.21;73.14
45793;BME280;31495;42.740;22.908;2022-09-21T00:32:37;93262.34;;;5.13;73.17
45793;BME280;31495;42.740;22.908;2022-09-21T00:33:39;93289.66;;;5.29;73.20
45793;BME280;31495;42.740;22.908;2022-09-21T00:34:39;93293.00;;;5.29;72.99
45793;BME280;31495;42.740;22.908;2022-09-21T00:35:38;93237.84;;;4.95;73.10
45793;BME280;31495;42.740;22.908;2022-09-21T00:36:39;93291.69;;;5.33;73.11
45793;BME280;31495;42.740;22.908;2022-09-21T00:37:39;93243.84;;;5.03;73.02
45793;BME280;31495;42.740;22.908;2022-09-21T00:38:39;93271.59;;;5.22;72.69
45793;BME280;31495;42.740;22.908;2022-09-21T00:39:38;93279.47;;;5.21;72.42
45793;BME280;31495;42.740;22.908;2022-09-21T00:40:38;93269.72;;;5.16;72.76
45793;BME280;31495;42.740;22.908;2022-09-21T00:41:37;93274.06;;;5.15;73.01
45793;BME280;31495;42.740;22.908;2022-09-21T00:42:37;93294.06;;;5.20;73.28
45793;BME280;31495;42.740;22.908;2022-09-21T00:43:41;93294.06;;;5.20;73.52
45793;BME280;31495;42.740;22.908;2022-09-21T00:44:41;93274.91;;;5.08;73.57
45793;BME280;31495;42.740;22.908;2022-09-21T00:45:42;93270.78;;;5.07;73.39
45793;BME280;31495;42.740;22.908;2022-09-21T00:46:44;93242.88;;;4.89;73.44
45793;BME280;31495;42.740;22.908;2022-09-21T00:47:44;93286.53;;;5.19;73.30
45793;BME280;31495;42.740;22.908;2022-09-21T00:48:44;93248.53;;;4.99;73.02
45793;BME280;31495;42.740;22.908;2022-09-21T00:49:47;93256.50;;;5.04;72.98
45793;BME280;31495;42.740;22.908;2022-09-21T00:50:51;93272.44;;;5.14;73.12
45793;BME280;31495;42.740;22.908;2022-09-21T00:51:53;93279.91;;;5.24;72.53
45793;BME280;31495;42.740;22.908;2022-09-21T00:52:55;93289.94;;;5.34;72.19
45793;BME280;31495;42.740;22.908;2022-09-21T00:54:01;93246.69;;;5.08;72.21
45793;BME280;31495;42.740;22.908;2022-09-21T00:55:10;93282.75;;;5.29;72.46
45793;BME280;31495;42.740;22.908;2022-09-21T00:56:13;93226.31;;;4.91;72.18
45793;BME280;31495;42.740;22.908;2022-09-21T00:57:14;93272.84;;;5.26;72.18
45793;BME280;31495;42.740;22.908;2022-09-21T00:58:21;93277.00;;;5.27;72.48
45793;BME280;31495;42.740;22.908;2022-09-21T00:59:24;93254.81;;;4.96;72.70
45793;BME280;31495;42.740;22.908;2022-09-21T01:00:24;93282.38;;;5.18;72.44
45793;BME280;31495;42.740;22.908;2022-09-21T01:01:23;93291.44;;;5.28;72.60
45793;BME280;31495;42.740;22.908;2022-09-21T01:02:23;93285.69;;;5.26;72.71
45793;BME280;31495;42.740;22.908;2022-09-21T01:03:22;93287.09;;;5.29;72.81
45793;BME280;31495;42.740;22.908;2022-09-21T01:04:22;93286.91;;;5.30;72.30
45793;BME280;31495;42.740;22.908;2022-09-21T01:05:21;93256.16;;;5.07;72.60
45793;BME280;31495;42.740;22.908;2022-09-21T01:06:22;93291.44;;;5.28;72.68
45793;BME280;31495;42.740;22.908;2022-09-21T01:07:25;93237.66;;;4.97;72.75
45793;BME280;31495;42.740;22.908;2022-09-21T01:08:27;93247.03;;;5.05;72.75
45793;BME280;31495;42.740;22.908;2022-09-21T01:09:27;93292.38;;;5.27;72.87
45793;BME280;31495;42.740;22.908;2022-09-21T01:10:29;93287.44;;;5.26;72.46
45793;BME280;31495;42.740;22.908;2022-09-21T01:11:32;93291.25;;;5.30;72.36
45793;BME280;31495;42.740;22.908;2022-09-21T01:13:54;93283.03;;;5.34;72.40
45793;BME280;31495;42.740;22.908;2022-09-21T01:16:14;93269.38;;;5.19;72.38
45793;BME280;31495;42.740;22.908;2022-09-21T01:20:29;93261.91;;;5.09;72.46
45793;BME280;31495;42.740;22.908;2022-09-21T01:21:42;93202.06;;;4.79;72.44
45793;BME280;31495;42.740;22.908;2022-09-21T01:24:35;93282.47;;;5.24;73.02
45793;BME280;31495;42.740;22.908;2022-09-21T01:26:01;93281.59;;;5.17;72.95
45793;BME280;31495;42.740;22.908;2022-09-21T01:27:36;93272.25;;;5.01;73.63
45793;BME280;31495;42.740;22.908;2022-09-21T01:30:14;93280.09;;;5.00;73.82
45793;BME280;31495;42.740;22.908;2022-09-21T01:31:24;93270.69;;;4.92;73.83
45793;BME280;31495;42.740;22.908;2022-09-21T01:32:34;93270.69;;;4.92;73.85
45793;BME280;31495;42.740;22.908;2022-09-21T01:33:38;93278.88;;;4.95;73.77
45793;BME280;31495;42.740;22.908;2022-09-21T01:34:46;93278.69;;;4.97;73.58
45793;BME280;31495;42.740;22.908;2022-09-21T01:35:57;93276.47;;;4.94;73.75
45793;BME280;31495;42.740;22.908;2022-09-21T01:37:06;93266.44;;;4.84;73.80
45793;BME280;31495;42.740;22.908;2022-09-21T01:38:12;93259.53;;;4.85;73.68
45793;BME280;31495;42.740;22.908;2022-09-21T01:39:15;93269.56;;;4.94;73.37
45793;BME280;31495;42.740;22.908;2022-09-21T01:40:49;93263.44;;;4.81;73.99
45793;BME280;31495;42.740;22.908;2022-09-21T01:41:51;93263.13;;;4.75;73.98
45793;BME280;31495;42.740;22.908;2022-09-21T01:42:54;93259.19;;;4.65;73.93
45793;BME280;31495;42.740;22.908;2022-09-21T01:43:59;93258.91;;;4.59;74.27
45793;BME280;31495;42.740;22.908;2022-09-21T01:45:03;93264.66;;;4.62;74.27
45793;BME280;31495;42.740;22.908;2022-09-21T01:46:12;93261.81;;;4.56;74.18
45793;BME280;31495;42.740;22.908;2022-09-21T01:47:16;93237.91;;;4.33;74.51
45793;BME280;31495;42.740;22.908;2022-09-21T01:48:17;93245.66;;;4.24;74.58
45793;BME280;31495;42.740;22.908;2022-09-21T01:49:29;93243.28;;;4.15;75.11
45793;BME280;31495;42.740;22.908;2022-09-21T01:50:34;93248.09;;;4.18;75.32
45793;BME280;31495;42.740;22.908;2022-09-21T01:51:38;93248.63;;;4.13;75.55
45793;BME280;31495;42.740;22.908;2022-09-21T01:52:50;93262.03;;;4.15;75.97
45793;BME280;31495;42.740;22.908;2022-09-21T01:53:55;93268.53;;;4.26;75.70
45793;BME280;31495;42.740;22.908;2022-09-21T01:55:11;93266.47;;;4.30;75.92
45793;BME280;31495;42.740;22.908;2022-09-21T01:56:15;93223.06;;;4.05;75.74
45793;BME280;31495;42.740;22.908;2022-09-21T02:00:13;93271.63;;;4.53;75.40
45793;BME280;31495;42.740;22.908;2022-09-21T02:01:15;93272.06;;;4.56;75.58
45793;BME280;31495;42.740;22.908;2022-09-21T02:02:22;93247.78;;;4.44;75.47
45793;BME280;31495;42.740;22.908;2022-09-21T02:03:32;93236.81;;;4.35;75.90
45793;BME280;31495;42.740;22.908;2022-09-21T02:04:34;93257.38;;;4.50;76.09
45793;BME280;31495;42.740;22.908;2022-09-21T02:05:34;93237.25;;;4.39;76.19
45793;BME280;31495;42.740;22.908;2022-09-21T02:06:34;93243.88;;;4.56;75.76
45793;BME280;31495;42.740;22.908;2022-09-21T02:07:37;93253.47;;;4.63;75.83
45793;BME280;31495;42.740;22.908;2022-09-21T02:08:38;93265.22;;;4.72;75.53
45793;BME280;31495;42.740;22.908;2022-09-21T02:09:38;93243.22;;;4.63;75.27
45793;BME280;31495;42.740;22.908;2022-09-21T02:10:44;93259.78;;;4.75;75.27
45793;BME280;31495;42.740;22.908;2022-09-21T02:11:45;93255.31;;;4.69;75.18
45793;BME280;31495;42.740;22.908;2022-09-21T02:12:45;93244.34;;;4.60;75.14
45793;BME280;31495;42.740;22.908;2022-09-21T02:13:47;93235.91;;;4.51;75.17
45793;BME280;31495;42.740;22.908;2022-09-21T02:14:49;93247.50;;;4.62;75.17
45793;BME280;31495;42.740;22.908;2022-09-21T02:17:35;93263.31;;;4.74;75.46
45793;BME280;31495;42.740;22.908;2022-09-21T02:20:06;93272.59;;;4.75;75.58
45793;BME280;31495;42.740;22.908;2022-09-21T02:21:14;93263.00;;;4.69;75.56
45793;BME280;31495;42.740;22.908;2022-09-21T02:22:25;93276.59;;;4.77;75.87
45793;BME280;31495;42.740;22.908;2022-09-21T02:23:36;93273.69;;;4.81;75.80
45793;BME280;31495;42.740;22.908;2022-09-21T02:25:05;93268.56;;;4.81;75.71
45793;BME280;31495;42.740;22.908;2022-09-21T02:26:09;93270.63;;;4.77;76.00
45793;BME280;31495;42.740;22.908;2022-09-21T02:28:57;93271.28;;;4.79;76.19
45793;BME280;31495;42.740;22.908;2022-09-21T02:31:23;93250.66;;;4.72;75.96
45793;BME280;31495;42.740;22.908;2022-09-21T02:34:03;93241.78;;;4.60;75.92
45793;BME280;31495;42.740;22.908;2022-09-21T02:35:15;93265.63;;;4.84;76.00
45793;BME280;31495;42.740;22.908;2022-09-21T02:36:48;93252.88;;;4.75;75.98
45793;BME280;31495;42.740;22.908;2022-09-21T02:37:54;93260.22;;;4.78;75.89
45793;BME280;31495;42.740;22.908;2022-09-21T02:39:06;93251.75;;;4.78;75.44
45793;BME280;31495;42.740;22.908;2022-09-21T02:40:29;93266.72;;;4.89;75.25
45793;BME280;31495;42.740;22.908;2022-09-21T02:41:54;93263.38;;;4.89;75.32
45793;BME280;31495;42.740;22.908;2022-09-21T02:43:01;93222.53;;;4.64;75.12
45793;BME280;31495;42.740;22.908;2022-09-21T02:44:12;93263.88;;;4.84;75.20
45793;BME280;31495;42.740;22.908;2022-09-21T02:45:19;93262.56;;;4.88;75.46
45793;BME280;31495;42.740;22.908;2022-09-21T02:46:25;93246.16;;;4.74;75.31
45793;BME280;31495;42.740;22.908;2022-09-21T02:47:37;93239.88;;;4.77;75.14
45793;BME280;31495;42.740;22.908;2022-09-21T02:48:50;93215.03;;;4.63;75.06
45793;BME280;31495;42.740;22.908;2022-09-21T02:49:53;93225.66;;;4.74;74.83
45793;BME280;31495;42.740;22.908;2022-09-21T02:50:59;93256.28;;;4.91;74.92
45793;BME280;31495;42.740;22.908;2022-09-21T02:52:05;93262.66;;;4.95;75.11
45793;BME280;31495;42.740;22.908;2022-09-21T02:53:09;93224.88;;;4.74;74.99
45793;BME280;31495;42.740;22.908;2022-09-21T02:54:13;93194.56;;;4.54;74.88
45793;BME280;31495;42.740;22.908;2022-09-21T02:55:16;93249.72;;;4.88;75.27
45793;BME280;31495;42.740;22.908;2022-09-21T02:56:16;93257.38;;;4.96;74.98
45793;BME280;31495;42.740;22.908;2022-09-21T02:57:18;93228.94;;;4.83;75.06
45793;BME280;31495;42.740;22.908;2022-09-21T02:58:20;93235.50;;;4.86;75.23
45793;BME280;31495;42.740;22.908;2022-09-21T02:59:22;93253.59;;;5.07;75.09
45793;BME280;31495;42.740;22.908;2022-09-21T03:00:22;93228.59;;;4.86;75.12
45793;BME280;31495;42.740;22.908;2022-09-21T03:01:21;93222.88;;;4.84;74.98
45793;BME280;31495;42.740;22.908;2022-09-21T03:02:22;93217.34;;;4.72;74.95
45793;BME280;31495;42.740;22.908;2022-09-21T03:03:23;93200.44;;;4.63;75.26
45793;BME280;31495;42.740;22.908;2022-09-21T03:04:24;93260.03;;;5.03;75.33
45793;BME280;31495;42.740;22.908;2022-09-21T03:05:26;93243.38;;;4.84;75.61
45793;BME280;31495;42.740;22.908;2022-09-21T03:06:26;93250.00;;;4.93;75.50
45793;BME280;31495;42.740;22.908;2022-09-21T03:07:26;93259.75;;;4.98;75.52
45793;BME280;31495;42.740;22.908;2022-09-21T03:08:25;93186.94;;;4.46;75.54
45793;BME280;31495;42.740;22.908;2022-09-21T03:09:24;93265.75;;;4.90;75.89
45793;BME280;31495;42.740;22.908;2022-09-21T03:10:24;93262.28;;;4.83;75.86
45793;BME280;31495;42.740;22.908;2022-09-21T03:11:24;93251.75;;;4.78;75.80
45793;BME280;31495;42.740;22.908;2022-09-21T03:12:24;93245.19;;;4.75;75.48
45793;BME280;31495;42.740;22.908;2022-09-21T03:13:24;93246.16;;;4.74;75.67
45793;BME280;31495;42.740;22.908;2022-09-21T03:14:23;93265.13;;;4.88;75.66
45793;BME280;31495;42.740;22.908;2022-09-21T03:15:23;93262.22;;;4.91;75.36
45793;BME280;31495;42.740;22.908;2022-09-21T03:16:24;93248.66;;;4.83;75.37
45793;BME280;31495;42.740;22.908;2022-09-21T03:17:23;93266.22;;;4.94;75.36
45793;BME280;31495;42.740;22.908;2022-09-21T03:18:22;93207.84;;;4.58;75.20
45793;BME280;31495;42.740;22.908;2022-09-21T03:19:22;93252.03;;;4.83;75.25
45793;BME280;31495;42.740;22.908;2022-09-21T03:20:21;93260.91;;;4.95;75.24
45793;BME280;31495;42.740;22.908;2022-09-21T03:21:21;93252.94;;;4.90;74.87
45793;BME280;31495;42.740;22.908;2022-09-21T03:22:21;93263.31;;;4.97;75.08
45793;BME280;31495;42.740;22.908;2022-09-21T03:23:21;93260.91;;;4.95;75.08
45793;BME280;31495;42.740;22.908;2022-09-21T03:24:20;93270.66;;;5.00;74.93
45793;BME280;31495;42.740;22.908;2022-09-21T03:25:39;93242.03;;;4.88;74.79
45793;BME280;31495;42.740;22.908;2022-09-21T03:26:41;93267.00;;;4.94;74.84
45793;BME280;31495;42.740;22.908;2022-09-21T03:27:41;93190.28;;;4.47;74.92
45793;BME280;31495;42.740;22.908;2022-09-21T03:28:40;93229.25;;;4.65;75.06
45793;BME280;31495;42.740;22.908;2022-09-21T03:29:40;93262.22;;;4.91;74.93
45793;BME280;31495;42.740;22.908;2022-09-21T03:30:40;93269.22;;;4.97;74.79
45793;BME280;31495;42.740;22.908;2022-09-21T03:31:40;93275.31;;;4.96;74.51
45793;BME280;31495;42.740;22.908;2022-09-21T03:32:40;93239.53;;;4.80;74.55
45793;BME280;31495;42.740;22.908;2022-09-21T03:33:39;93070.16;;;3.67;74.64
45793;BME280;31495;42.740;22.908;2022-09-21T03:34:39;93257.88;;;4.92;74.54
45793;BME280;31495;42.740;22.908;2022-09-21T03:35:39;93263.47;;;4.95;74.78
45793;BME280;31495;42.740;22.908;2022-09-21T03:36:39;93233.63;;;4.79;74.52
45793;BME280;31495;42.740;22.908;2022-09-21T03:37:39;93236.69;;;4.75;74.58
45793;BME280;31495;42.740;22.908;2022-09-21T03:38:39;93260.44;;;4.92;74.60
45793;BME280;31495;42.740;22.908;2022-09-21T03:39:38;93263.66;;;4.94;74.55
45793;BME280;31495;42.740;22.908;2022-09-21T03:40:37;93225.22;;;4.71;74.38
45793;BME280;31495;42.740;22.908;2022-09-21T03:41:37;93259.66;;;4.91;74.67
45793;BME280;31495;42.740;22.908;2022-09-21T03:42:38;93234.75;;;4.77;74.82
45793;BME280;31495;42.740;22.908;2022-09-21T03:43:38;93255.69;;;4.89;74.48
45793;BME280;31495;42.740;22.908;2022-09-21T03:44:38;93260.16;;;4.87;74.67
45793;BME280;31495;42.740;22.908;2022-09-21T03:45:39;93262.56;;;4.88;74.60
45793;BME280;31495;42.740;22.908;2022-09-21T03:46:39;93266.09;;;4.87;74.85
45793;BME280;31495;42.740;22.908;2022-09-21T03:47:39;93246.94;;;4.75;74.91
45793;BME280;31495;42.740;22.908;2022-09-21T03:48:38;93247.34;;;4.64;74.92
45793;BME280;31495;42.740;22.908;2022-09-21T03:49:40;93235.91;;;4.74;75.01
45793;BME280;31495;42.740;22.908;2022-09-21T03:50:40;93279.59;;;5.04;74.77
45793;BME280;31495;42.740;22.908;2022-09-21T03:51:39;93284.94;;;4.94;75.03
45793;BME280;31495;42.740;22.908;2022-09-21T03:52:39;93280.34;;;4.90;74.93
45793;BME280;31495;42.740;22.908;2022-09-21T03:53:39;93285.47;;;4.90;74.83
45793;BME280;31495;42.740;22.908;2022-09-21T03:54:38;93214.31;;;4.46;74.54
45793;BME280;31495;42.740;22.908;2022-09-21T03:55:38;93284.38;;;4.84;74.54
45793;BME280;31495;42.740;22.908;2022-09-21T03:56:38;93236.88;;;4.50;74.68
45793;BME280;31495;42.740;22.908;2022-09-21T03:57:37;93287.56;;;4.86;74.81
45793;BME280;31495;42.740;22.908;2022-09-21T03:58:37;93263.94;;;4.76;74.71
45793;BME280;31495;42.740;22.908;2022-09-21T03:59:36;93292.03;;;4.92;74.53
45793;BME280;31495;42.740;22.908;2022-09-21T04:00:36;93271.75;;;4.83;74.58
45793;BME280;31495;42.740;22.908;2022-09-21T04:01:37;93274.88;;;4.93;74.68
45793;BME280;31495;42.740;22.908;2022-09-21T04:02:37;93288.78;;;4.99;74.64
45793;BME280;31495;42.740;22.908;2022-09-21T04:03:38;93279.31;;;4.99;74.94
45793;BME280;31495;42.740;22.908;2022-09-21T04:04:38;93248.84;;;4.81;75.05
45793;BME280;31495;42.740;22.908;2022-09-21T04:05:38;93249.91;;;4.87;74.79
45793;BME280;31495;42.740;22.908;2022-09-21T04:06:37;93267.00;;;4.94;75.05
45793;BME280;31495;42.740;22.908;2022-09-21T04:07:36;93263.00;;;4.92;75.21
45793;BME280;31495;42.740;22.908;2022-09-21T04:08:37;93277.19;;;5.03;75.25
45793;BME280;31495;42.740;22.908;2022-09-21T04:09:36;93248.94;;;4.88;75.55
45793;BME280;31495;42.740;22.908;2022-09-21T04:10:38;93230.16;;;4.72;75.62
45793;BME280;31495;42.740;22.908;2022-09-21T04:11:39;93242.56;;;4.84;75.43
45793;BME280;31495;42.740;22.908;2022-09-21T04:12:40;93275.09;;;5.06;75.65
45793;BME280;31495;42.740;22.908;2022-09-21T04:13:43;93277.13;;;5.11;75.54
45793;BME280;31495;42.740;22.908;2022-09-21T04:14:43;93267.22;;;5.08;75.17
45793;BME280;31495;42.740;22.908;2022-09-21T04:15:43;93246.41;;;5.03;75.05
45793;BME280;31495;42.740;22.908;2022-09-21T04:16:43;93278.03;;;5.18;75.20
45793;BME280;31495;42.740;22.908;2022-09-21T04:17:43;93212.66;;;4.76;75.01
45793;BME280;31495;42.740;22.908;2022-09-21T04:18:42;93257.47;;;5.03;74.71
45793;BME280;31495;42.740;22.908;2022-09-21T04:19:41;93281.50;;;5.25;74.39
45793;BME280;31495;42.740;22.908;2022-09-21T04:20:43;93282.75;;;5.29;74.14
45793;BME280;31495;42.740;22.908;2022-09-21T04:21:42;93275.75;;;5.23;74.37
45793;BME280;31495;42.740;22.908;2022-09-21T04:22:41;93253.00;;;5.05;74.30
45793;BME280;31495;42.740;22.908;2022-09-21T04:23:41;93275.75;;;5.23;74.31
45793;BME280;31495;42.740;22.908;2022-09-21T04:24:42;93267.66;;;5.11;74.35
45793;BME280;31495;42.740;22.908;2022-09-21T04:25:42;93273.53;;;5.20;74.66
45793;BME280;31495;42.740;22.908;2022-09-21T04:26:42;93234.81;;;4.92;74.60
45793;BME280;31495;42.740;22.908;2022-09-21T04:27:42;93241.97;;;4.96;74.59
45793;BME280;31495;42.740;22.908;2022-09-21T04:28:41;93272.97;;;5.10;74.92
45793;BME280;31495;42.740;22.908;2022-09-21T04:29:41;93275.34;;;5.11;74.88
45793;BME280;31495;42.740;22.908;2022-09-21T04:30:40;93270.78;;;5.07;75.12
45793;BME280;31495;42.740;22.908;2022-09-21T04:31:40;93284.41;;;5.22;74.83
45793;BME280;31495;42.740;22.908;2022-09-21T04:32:40;93274.34;;;5.21;74.69
45793;BME280;31495;42.740;22.908;2022-09-21T04:33:40;93256.69;;;5.03;74.73
45793;BME280;31495;42.740;22.908;2022-09-21T04:34:39;93289.28;;;5.17;74.97
45793;BME280;31495;42.740;22.908;2022-09-21T04:35:39;93280.78;;;5.17;74.98
45793;BME280;31495;42.740;22.908;2022-09-21T04:36:39;93244.53;;;4.96;75.11
45793;BME280;31495;42.740;22.908;2022-09-21T04:37:38;93282.97;;;5.20;75.12
45793;BME280;31495;42.740;22.908;2022-09-21T04:38:38;93255.50;;;4.90;75.21
45793;BME280;31495;42.740;22.908;2022-09-21T04:39:39;93244.78;;;4.87;75.30
45793;BME280;31495;42.740;22.908;2022-09-21T04:40:38;93226.91;;;4.78;75.25
45793;BME280;31495;42.740;22.908;2022-09-21T04:41:38;93286.44;;;5.12;74.90
45793;BME280;31495;42.740;22.908;2022-09-21T04:42:38;93207.03;;;4.57;74.99
45793;BME280;31495;42.740;22.908;2022-09-21T04:43:40;93277.19;;;5.03;75.27
45793;BME280;31495;42.740;22.908;2022-09-21T04:44:40;93247.88;;;4.82;74.96
45793;BME280;31495;42.740;22.908;2022-09-21T04:45:40;93223.50;;;4.63;75.19
45793;BME280;31495;42.740;22.908;2022-09-21T04:46:39;93254.69;;;4.90;75.86
45793;BME280;31495;42.740;22.908;2022-09-21T04:47:38;93263.47;;;4.95;75.84
45793;BME280;31495;42.740;22.908;2022-09-21T04:48:38;93260.56;;;4.99;75.78
45793;BME280;31495;42.740;22.908;2022-09-21T04:49:38;93248.44;;;4.92;76.08
45793;BME280;31495;42.740;22.908;2022-09-21T04:50:38;93262.31;;;4.98;76.19
45793;BME280;31495;42.740;22.908;2022-09-21T04:51:37;93239.31;;;4.90;76.25
45793;BME280;31495;42.740;22.908;2022-09-21T04:52:37;93265.81;;;5.05;76.00
45793;BME280;31495;42.740;22.908;2022-09-21T04:53:38;93277.13;;;5.11;76.35
45793;BME280;31495;42.740;22.908;2022-09-21T04:54:37;93269.72;;;5.16;76.28
45793;BME280;31495;42.740;22.908;2022-09-21T04:55:37;93275.94;;;5.22;76.23
45793;BME280;31495;42.740;22.908;2022-09-21T04:56:36;93289.03;;;5.27;76.37
45793;BME280;31495;42.740;22.908;2022-09-21T04:57:36;93291.25;;;5.30;76.38
45793;BME280;31495;42.740;22.908;2022-09-21T04:58:35;93266.69;;;5.12;76.52
45793;BME280;31495;42.740;22.908;2022-09-21T04:59:35;93275.13;;;5.21;76.68
45793;BME280;31495;42.740;22.908;2022-09-21T05:00:34;93252.66;;;5.08;76.84
45793;BME280;31495;42.740;22.908;2022-09-21T05:01:34;93284.19;;;5.32;76.90
45793;BME280;31495;42.740;22.908;2022-09-21T05:02:34;93298.16;;;5.44;76.91
45793;BME280;31495;42.740;22.908;2022-09-21T05:03:33;93276.13;;;5.35;77.10
45793;BME280;31495;42.740;22.908;2022-09-21T05:04:33;93256.81;;;5.24;77.11
45793;BME280;31495;42.740;22.908;2022-09-21T05:05:33;93280.84;;;5.46;76.94
45793;BME280;31495;42.740;22.908;2022-09-21T05:06:32;93272.22;;;5.39;77.08
45793;BME280;31495;42.740;22.908;2022-09-21T05:07:32;93298.22;;;5.59;76.93
45793;BME280;31495;42.740;22.908;2022-09-21T05:08:32;93262.78;;;5.40;76.97
45793;BME280;31495;42.740;22.908;2022-09-21T05:09:50;93260.75;;;5.50;76.71
45793;BME280;31495;42.740;22.908;2022-09-21T05:11:02;93293.44;;;5.71;76.72
45793;BME280;31495;42.740;22.908;2022-09-21T05:12:01;93267.25;;;5.61;76.94
45793;BME280;31495;42.740;22.908;2022-09-21T05:13:01;93304.84;;;5.83;76.74
45793;BME280;31495;42.740;22.908;2022-09-21T05:14:00;93284.75;;;5.72;76.67
45793;BME280;31495;42.740;22.908;2022-09-21T05:15:00;93274.47;;;5.72;76.33
45793;BME280;31495;42.740;22.908;2022-09-21T05:16:00;93267.78;;;5.71;76.02
45793;BME280;31495;42.740;22.908;2022-09-21T05:17:00;93280.69;;;5.78;75.73
45793;BME280;31495;42.740;22.908;2022-09-21T05:17:59;93278.47;;;5.89;75.74
45793;BME280;31495;42.740;22.908;2022-09-21T05:18:59;93299.06;;;6.04;75.85
45793;BME280;31495;42.740;22.908;2022-09-21T05:19:58;93285.78;;;6.01;75.61
45793;BME280;31495;42.740;22.908;2022-09-21T05:21:00;93277.53;;;6.05;75.44
45793;BME280;31495;42.740;22.908;2022-09-21T05:22:00;93274.63;;;6.09;75.33
45793;BME280;31495;42.740;22.908;2022-09-21T05:22:59;93253.00;;;6.03;75.24
45793;BME280;31495;42.740;22.908;2022-09-21T05:24:00;93251.31;;;6.10;75.24
45793;BME280;31495;42.740;22.908;2022-09-21T05:25:00;93267.25;;;6.20;75.01
45793;BME280;31495;42.740;22.908;2022-09-21T05:25:59;93273.78;;;6.38;75.08
45793;BME280;31495;42.740;22.908;2022-09-21T05:27:00;93247.47;;;6.21;75.22
45793;BME280;31495;42.740;22.908;2022-09-21T05:28:00;93263.28;;;6.39;75.17
45793;BME280;31495;42.740;22.908;2022-09-21T05:29:00;93238.38;;;6.18;75.48
45793;BME280;31495;42.740;22.908;2022-09-21T05:30:00;93280.03;;;6.50;75.22
45793;BME280;31495;42.740;22.908;2022-09-21T05:32:53;93268.59;;;6.53;74.94
45793;BME280;31495;42.740;22.908;2022-09-21T05:34:05;93266.22;;;6.51;75.03
45793;BME280;31495;42.740;22.908;2022-09-21T05:38:00;93260.59;;;6.62;74.71
45793;BME280;31495;42.740;22.908;2022-09-21T05:39:03;93275.41;;;6.82;75.05
45793;BME280;31495;42.740;22.908;2022-09-21T05:40:03;93265.88;;;6.76;75.36
45793;BME280;31495;42.740;22.908;2022-09-21T05:41:04;93279.28;;;6.93;74.98
45793;BME280;31495;42.740;22.908;2022-09-21T05:42:03;93253.63;;;6.78;74.89
45793;BME280;31495;42.740;22.908;2022-09-21T05:43:03;93279.16;;;7.01;75.03
45793;BME280;31495;42.740;22.908;2022-09-21T05:44:03;93267.66;;;6.97;75.34
45793;BME280;31495;42.740;22.908;2022-09-21T05:45:04;93274.63;;;7.03;75.51
45793;BME280;31495;42.740;22.908;2022-09-21T05:46:18;93267.72;;;7.04;75.27
45793;BME280;31495;42.740;22.908;2022-09-21T05:47:27;93271.97;;;7.18;75.94
45793;BME280;31495;42.740;22.908;2022-09-21T05:48:42;93256.16;;;7.21;76.05
45793;BME280;31495;42.740;22.908;2022-09-21T05:50:00;93240.03;;;7.06;76.77
45793;BME280;31495;42.740;22.908;2022-09-21T05:56:44;93286.00;;;7.65;75.08
45793;BME280;31495;42.740;22.908;2022-09-21T06:00:00;93276.22;;;7.82;75.21
45793;BME280;31495;42.740;22.908;2022-09-21T06:03:34;93277.59;;;7.85;73.69
45793;BME280;31495;42.740;22.908;2022-09-21T06:04:34;93261.50;;;7.76;73.60
45793;BME280;31495;42.740;22.908;2022-09-21T06:05:34;93262.31;;;7.77;73.02